sensor_id;sensor_type;location;lat;lon;timestamp;pressure;altitude;pressure_sealevel;temperature;humidity
11017;BME280;54687;50.800;6.772;2024-01-07T00:00:28;99874.00;;;-144.06;65.54
11017;BME280;54687;50.800;6.772;2024-01-07T00:02:55;99899.44;;;-144.06;65.63
11017;BME280;54687;50.800;6.772;2024-01-07T00:05:21;99874.00;;;-144.06;65.80
11017;BME280;54687;50.800;6.772;2024-01-07T00:07:49;99907.91;;;-144.06;65.34
11017;BME280;54687;50.800;6.772;2024-01-07T00:10:17;99874.00;;;-144.06;65.42
11017;BME280;54687;50.800;6.772;2024-01-07T00:12:44;99874.00;;;-144.06;65.79
11017;BME280;54687;50.800;6.772;2024-01-07T00:15:10;99649.28;;;-144.06;65.66
11017;BME280;54687;50.800;6.772;2024-01-07T00:17:37;99897.31;;;-144.06;65.63
11017;BME280;54687;50.800;6.772;2024-01-07T00:20:05;99878.25;;;-144.06;65.44
11017;BME280;54687;50.800;6.772;2024-01-07T00:22:31;99890.97;;;-144.06;65.64
11017;BME280;54687;50.800;6.772;2024-01-07T00:24:59;99920.66;;;-144.06;66.00
11017;BME280;54687;50.800;6.772;2024-01-07T00:27:26;99903.69;;;-144.06;66.41
11017;BME280;54687;50.800;6.772;2024-01-07T00:29:53;99886.72;;;-144.06;66.00
11017;BME280;54687;50.800;6.772;2024-01-07T00:32:19;99882.47;;;-144.06;65.88
11017;BME280;54687;50.800;6.772;2024-01-07T00:34:46;99876.13;;;-144.06;66.03
11017;BME280;54687;50.800;6.772;2024-01-07T00:37:12;99865.53;;;-144.06;65.95
11017;BME280;54687;50.800;6.772;2024-01-07T00:39:39;99895.19;;;-144.06;66.24
11017;BME280;54687;50.800;6.772;2024-01-07T00:42:08;99912.16;;;-144.06;66.33
11017;BME280;54687;50.800;6.772;2024-01-07T00:44:36;99859.16;;;-144.06;66.34
11017;BME280;54687;50.800;6.772;2024-01-07T00:47:03;99850.69;;;-144.06;66.14
11017;BME280;54687;50.800;6.772;2024-01-07T00:49:30;99933.38;;;-144.06;66.41
11017;BME280;54687;50.800;6.772;2024-01-07T00:51:56;99880.38;;;-144.06;66.12
11017;BME280;54687;50.800;6.772;2024-01-07T00:54:23;99840.09;;;-144.06;66.24
11017;BME280;54687;50.800;6.772;2024-01-07T00:56:49;99895.19;;;-144.06;66.07
11017;BME280;54687;50.800;6.772;2024-01-07T00:59:17;99899.44;;;-144.06;66.38
11017;BME280;54687;50.800;6.772;2024-01-07T01:01:44;99905.81;;;-144.06;66.05
11017;BME280;54687;50.800;6.772;2024-01-07T01:04:11;99840.09;;;-144.06;66.29
11017;BME280;54687;50.800;6.772;2024-01-07T01:06:37;99852.81;;;-144.06;65.74
11017;BME280;54687;50.800;6.772;2024-01-07T01:09:04;99903.69;;;-144.06;65.55
11017;BME280;54687;50.800;6.772;2024-01-07T01:11:31;99886.72;;;-144.06;65.39
11017;BME280;54687;50.800;6.772;2024-01-07T01:13:57;99874.00;;;-144.06;64.98
11017;BME280;54687;50.800;6.772;2024-01-07T01:16:25;99865.53;;;-144.06;65.17
11017;BME280;54687;50.800;6.772;2024-01-07T01:18:55;99857.03;;;-144.06;64.96
11017;BME280;54687;50.800;6.772;2024-01-07T01:21:23;99850.69;;;-144.06;64.83
11017;BME280;54687;50.800;6.772;2024-01-07T01:23:51;99886.72;;;-144.06;65.24
11017;BME280;54687;50.800;6.772;2024-01-07T01:26:19;99907.91;;;-144.06;65.09
11017;BME280;54687;50.800;6.772;2024-01-07T01:28:46;99907.91;;;-144.06;64.84
11017;BME280;54687;50.800;6.772;2024-01-07T01:31:13;99857.03;;;-144.06;65.09
11017;BME280;54687;50.800;6.772;2024-01-07T01:33:41;99857.03;;;-144.06;65.41
11017;BME280;54687;50.800;6.772;2024-01-07T01:36:08;99895.19;;;-144.06;65.21
11017;BME280;54687;50.800;6.772;2024-01-07T01:38:35;99880.38;;;-144.06;65.26
11017;BME280;54687;50.800;6.772;2024-01-07T01:41:07;99912.16;;;-144.06;65.48
11017;BME280;54687;50.800;6.772;2024-01-07T01:43:34;99899.44;;;-144.06;65.41
11017;BME280;54687;50.800;6.772;2024-01-07T01:46:02;99895.19;;;-144.06;65.65
11017;BME280;54687;50.800;6.772;2024-01-07T01:48:31;99890.97;;;-144.06;65.38
11017;BME280;54687;50.800;6.772;2024-01-07T01:51:05;99939.72;;;-144.06;65.63
11017;BME280;54687;50.800;6.772;2024-01-07T01:53:32;99912.16;;;-144.06;65.13
11017;BME280;54687;50.800;6.772;2024-01-07T01:56:01;99880.38;;;-144.06;65.11
11017;BME280;54687;50.800;6.772;2024-01-07T01:58:29;99848.56;;;-144.06;65.29
11017;BME280;54687;50.800;6.772;2024-01-07T02:00:56;99912.16;;;-144.06;65.32
11017;BME280;54687;50.800;6.772;2024-01-07T02:03:28;99846.44;;;-144.06;65.17
11017;BME280;54687;50.800;6.772;2024-01-07T02:05:56;99880.38;;;-144.06;65.19
11017;BME280;54687;50.800;6.772;2024-01-07T02:08:25;99865.53;;;-144.06;65.48
11017;BME280;54687;50.800;6.772;2024-01-07T02:10:53;99865.53;;;-144.06;65.49
11017;BME280;54687;50.800;6.772;2024-01-07T02:13:19;99886.72;;;-144.06;65.50
11017;BME280;54687;50.800;6.772;2024-01-07T02:15:46;99865.53;;;-144.06;65.38
11017;BME280;54687;50.800;6.772;2024-01-07T02:18:12;99865.53;;;-144.06;65.11
11017;BME280;54687;50.800;6.772;2024-01-07T02:20:39;99890.97;;;-144.06;65.07
11017;BME280;54687;50.800;6.772;2024-01-07T02:23:06;99880.38;;;-144.06;65.10
11017;BME280;54687;50.800;6.772;2024-01-07T02:25:36;99823.13;;;-144.06;64.99
11017;BME280;54687;50.800;6.772;2024-01-07T02:28:03;99878.25;;;-144.06;65.33
11017;BME280;54687;50.800;6.772;2024-01-07T02:30:29;99903.69;;;-144.06;65.11
11017;BME280;54687;50.800;6.772;2024-01-07T02:32:56;99869.75;;;-144.06;64.95
11017;BME280;54687;50.800;6.772;2024-01-07T02:35:22;99863.41;;;-144.06;64.99
11017;BME280;54687;50.800;6.772;2024-01-07T02:37:49;99842.19;;;-144.06;64.77
11017;BME280;54687;50.800;6.772;2024-01-07T02:40:15;99840.09;;;-144.06;64.48
11017;BME280;54687;50.800;6.772;2024-01-07T02:42:43;99888.84;;;-144.06;64.80
11017;BME280;54687;50.800;6.772;2024-01-07T02:45:10;99869.75;;;-144.06;64.62
11017;BME280;54687;50.800;6.772;2024-01-07T02:47:36;99895.19;;;-144.06;64.77
11017;BME280;54687;50.800;6.772;2024-01-07T02:50:04;99859.16;;;-144.06;64.92
11017;BME280;54687;50.800;6.772;2024-01-07T02:52:31;99865.53;;;-144.06;64.45
11017;BME280;54687;50.800;6.772;2024-01-07T02:54:58;99842.19;;;-144.06;64.23
11017;BME280;54687;50.800;6.772;2024-01-07T02:57:26;99850.69;;;-144.06;64.55
11017;BME280;54687;50.800;6.772;2024-01-07T02:59:54;99857.03;;;-144.06;64.30
11017;BME280;54687;50.800;6.772;2024-01-07T03:02:21;99878.25;;;-144.06;64.34
11017;BME280;54687;50.800;6.772;2024-01-07T03:04:48;99857.03;;;-144.06;64.58
11017;BME280;54687;50.800;6.772;2024-01-07T03:07:14;99865.53;;;-144.06;64.15
11017;BME280;54687;50.800;6.772;2024-01-07T03:09:41;99854.91;;;-144.06;64.21
11017;BME280;54687;50.800;6.772;2024-01-07T03:12:07;99852.81;;;-144.06;64.33
11017;BME280;54687;50.800;6.772;2024-01-07T03:14:34;99844.31;;;-144.06;64.17
11017;BME280;54687;50.800;6.772;2024-01-07T03:17:02;99886.72;;;-144.06;64.21
11017;BME280;54687;50.800;6.772;2024-01-07T03:19:29;99865.53;;;-144.06;64.48
11017;BME280;54687;50.800;6.772;2024-01-07T03:21:55;99886.72;;;-144.06;64.49
11017;BME280;54687;50.800;6.772;2024-01-07T03:24:23;99865.53;;;-144.06;64.64
11017;BME280;54687;50.800;6.772;2024-01-07T03:26:49;99859.16;;;-144.06;64.94
11017;BME280;54687;50.800;6.772;2024-01-07T03:29:16;99882.47;;;-144.06;65.07
11017;BME280;54687;50.800;6.772;2024-01-07T03:31:43;99810.41;;;-144.06;64.77
11017;BME280;54687;50.800;6.772;2024-01-07T03:34:11;99895.19;;;-144.06;64.90
11017;BME280;54687;50.800;6.772;2024-01-07T03:36:37;99867.66;;;-144.06;64.92
11017;BME280;54687;50.800;6.772;2024-01-07T03:39:04;99880.38;;;-144.06;65.14
11017;BME280;54687;50.800;6.772;2024-01-07T03:41:31;99924.88;;;-144.06;65.21
11017;BME280;54687;50.800;6.772;2024-01-07T03:43:57;99920.66;;;-144.06;65.28
11017;BME280;54687;50.800;6.772;2024-01-07T03:46:24;99895.19;;;-144.06;65.48
11017;BME280;54687;50.800;6.772;2024-01-07T03:48:50;99852.81;;;-144.06;65.17
11017;BME280;54687;50.800;6.772;2024-01-07T03:51:18;99859.16;;;-144.06;65.54
11017;BME280;54687;50.800;6.772;2024-01-07T03:53:45;99863.41;;;-144.06;65.13
11017;BME280;54687;50.800;6.772;2024-01-07T03:56:12;99890.97;;;-144.06;65.17
11017;BME280;54687;50.800;6.772;2024-01-07T03:58:38;99895.19;;;-144.06;65.22
11017;BME280;54687;50.800;6.772;2024-01-07T04:01:05;99946.09;;;-144.06;65.42
11017;BME280;54687;50.800;6.772;2024-01-07T04:03:31;99854.91;;;-144.06;65.14
11017;BME280;54687;50.800;6.772;2024-01-07T04:05:58;99876.13;;;-144.06;64.71
11017;BME280;54687;50.800;6.772;2024-01-07T04:08:26;99920.66;;;-144.06;65.07
11017;BME280;54687;50.800;6.772;2024-01-07T04:10:53;99890.97;;;-144.06;64.92
11017;BME280;54687;50.800;6.772;2024-01-07T04:13:20;99852.81;;;-144.06;64.88
11017;BME280;54687;50.800;6.772;2024-01-07T04:15:47;99865.53;;;-144.06;65.43
11017;BME280;54687;50.800;6.772;2024-01-07T04:18:13;99882.47;;;-144.06;64.95
11017;BME280;54687;50.800;6.772;2024-01-07T04:20:40;99905.81;;;-144.06;65.61
11017;BME280;54687;50.800;6.772;2024-01-07T04:23:07;99878.25;;;-144.06;64.96
11017;BME280;54687;50.800;6.772;2024-01-07T04:25:35;99857.03;;;-144.06;65.35
11017;BME280;54687;50.800;6.772;2024-01-07T04:28:01;99854.91;;;-144.06;65.02
11017;BME280;54687;50.800;6.772;2024-01-07T04:30:28;99869.75;;;-144.06;64.70
11017;BME280;54687;50.800;6.772;2024-01-07T04:32:55;99903.69;;;-144.06;65.21
11017;BME280;54687;50.800;6.772;2024-01-07T04:35:22;99874.00;;;-144.06;65.02
11017;BME280;54687;50.800;6.772;2024-01-07T04:37:48;99886.72;;;-144.06;65.04
11017;BME280;54687;50.800;6.772;2024-01-07T04:40:15;99857.03;;;-144.06;65.02
11017;BME280;54687;50.800;6.772;2024-01-07T04:42:42;99865.53;;;-144.06;64.88
11017;BME280;54687;50.800;6.772;2024-01-07T04:45:09;99890.97;;;-144.06;64.85
11017;BME280;54687;50.800;6.772;2024-01-07T04:47:36;99890.97;;;-144.06;64.83
11017;BME280;54687;50.800;6.772;2024-01-07T04:50:03;99920.66;;;-144.06;64.99
11017;BME280;54687;50.800;6.772;2024-01-07T04:52:30;99886.72;;;-144.06;64.80
11017;BME280;54687;50.800;6.772;2024-01-07T04:54:57;99793.44;;;-144.06;64.82
11017;BME280;54687;50.800;6.772;2024-01-07T04:57:23;99865.53;;;-144.06;64.68
11017;BME280;54687;50.800;6.772;2024-01-07T04:59:51;99907.91;;;-144.06;64.91
11017;BME280;54687;50.800;6.772;2024-01-07T05:02:18;100391.31;;;-144.06;65.14
11017;BME280;54687;50.800;6.772;2024-01-07T05:04:45;99869.75;;;-144.06;65.28
11017;BME280;54687;50.800;6.772;2024-01-07T05:07:12;99844.31;;;-144.06;65.39
11017;BME280;54687;50.800;6.772;2024-01-07T05:09:39;99893.09;;;-144.06;65.28
11017;BME280;54687;50.800;6.772;2024-01-07T05:12:06;99924.88;;;-144.06;65.26
11017;BME280;54687;50.800;6.772;2024-01-07T05:14:32;99903.69;;;-144.06;65.43
11017;BME280;54687;50.800;6.772;2024-01-07T05:17:00;99905.81;;;-144.06;64.88
11017;BME280;54687;50.800;6.772;2024-01-07T05:19:27;99920.66;;;-144.06;65.10
11017;BME280;54687;50.800;6.772;2024-01-07T05:21:54;99844.31;;;-144.06;64.86
11017;BME280;54687;50.800;6.772;2024-01-07T05:24:20;99888.84;;;-144.06;65.13
11017;BME280;54687;50.800;6.772;2024-01-07T05:26:47;99772.25;;;-144.06;65.09
11017;BME280;54687;50.800;6.772;2024-01-07T05:29:14;99890.97;;;-144.06;65.11
11017;BME280;54687;50.800;6.772;2024-01-07T05:31:41;99867.66;;;-144.06;64.65
11017;BME280;54687;50.800;6.772;2024-01-07T05:34:09;99910.03;;;-144.06;64.83
11017;BME280;54687;50.800;6.772;2024-01-07T05:36:35;99886.72;;;-144.06;64.30
11017;BME280;54687;50.800;6.772;2024-01-07T05:39:02;99890.97;;;-144.06;64.01
11017;BME280;54687;50.800;6.772;2024-01-07T05:41:29;99869.75;;;-144.06;64.42
11017;BME280;54687;50.800;6.772;2024-01-07T05:43:55;99888.84;;;-144.06;64.24
11017;BME280;54687;50.800;6.772;2024-01-07T05:46:22;99886.72;;;-144.06;63.73
11017;BME280;54687;50.800;6.772;2024-01-07T05:48:49;99876.13;;;-144.06;63.50
11017;BME280;54687;50.800;6.772;2024-01-07T05:51:17;99897.31;;;-144.06;63.64
11017;BME280;54687;50.800;6.772;2024-01-07T05:53:44;99848.56;;;-144.06;63.42
11017;BME280;54687;50.800;6.772;2024-01-07T05:56:11;99784.97;;;-144.06;63.37
11017;BME280;54687;50.800;6.772;2024-01-07T05:58:38;99871.88;;;-144.06;63.47
11017;BME280;54687;50.800;6.772;2024-01-07T06:01:05;99831.59;;;-144.06;63.86
11017;BME280;54687;50.800;6.772;2024-01-07T06:03:32;99899.44;;;-144.06;63.97
11017;BME280;54687;50.800;6.772;2024-01-07T06:05:59;99874.00;;;-144.06;63.54
11017;BME280;54687;50.800;6.772;2024-01-07T06:08:27;99871.88;;;-144.06;63.84
11017;BME280;54687;50.800;6.772;2024-01-07T06:10:53;99886.72;;;-144.06;64.21
11017;BME280;54687;50.800;6.772;2024-01-07T06:13:20;99874.00;;;-144.06;64.06
11017;BME280;54687;50.800;6.772;2024-01-07T06:15:47;99886.72;;;-144.06;63.54
11017;BME280;54687;50.800;6.772;2024-01-07T06:18:13;99859.16;;;-144.06;63.79
11017;BME280;54687;50.800;6.772;2024-01-07T06:20:40;99910.03;;;-144.06;63.84
11017;BME280;54687;50.800;6.772;2024-01-07T06:23:06;99924.88;;;-144.06;63.91
11017;BME280;54687;50.800;6.772;2024-01-07T06:25:35;99897.31;;;-144.06;63.67
11017;BME280;54687;50.800;6.772;2024-01-07T06:28:01;99903.69;;;-144.06;63.81
11017;BME280;54687;50.800;6.772;2024-01-07T06:30:28;99899.44;;;-144.06;64.03
11017;BME280;54687;50.800;6.772;2024-01-07T06:32:55;99893.09;;;-144.06;64.11
11017;BME280;54687;50.800;6.772;2024-01-07T06:35:21;99914.28;;;-144.06;63.65
11017;BME280;54687;50.800;6.772;2024-01-07T06:37:48;99890.97;;;-144.06;64.06
11017;BME280;54687;50.800;6.772;2024-01-07T06:40:15;99922.75;;;-144.06;64.12
11017;BME280;54687;50.800;6.772;2024-01-07T06:42:42;99948.22;;;-144.06;63.62
11017;BME280;54687;50.800;6.772;2024-01-07T06:45:10;100344.69;;;-144.06;63.72
11017;BME280;54687;50.800;6.772;2024-01-07T06:47:36;99895.19;;;-144.06;63.89
11017;BME280;54687;50.800;6.772;2024-01-07T06:50:04;99869.75;;;-144.06;64.17
11017;BME280;54687;50.800;6.772;2024-01-07T06:52:30;99901.56;;;-144.06;64.59
11017;BME280;54687;50.800;6.772;2024-01-07T06:54:57;99890.97;;;-144.06;63.87
11017;BME280;54687;50.800;6.772;2024-01-07T06:57:24;99912.16;;;-144.06;64.36
11017;BME280;54687;50.800;6.772;2024-01-07T06:59:54;99937.59;;;-144.06;63.86
11017;BME280;54687;50.800;6.772;2024-01-07T07:02:21;99907.91;;;-144.06;63.84
11017;BME280;54687;50.800;6.772;2024-01-07T07:04:47;99905.81;;;-144.06;64.38
11017;BME280;54687;50.800;6.772;2024-01-07T07:07:16;99899.44;;;-144.06;64.04
11017;BME280;54687;50.800;6.772;2024-01-07T07:09:42;99886.72;;;-144.06;63.86
11017;BME280;54687;50.800;6.772;2024-01-07T07:12:10;99895.19;;;-144.06;63.71
11017;BME280;54687;50.800;6.772;2024-01-07T07:14:37;99895.19;;;-144.06;63.82
11017;BME280;54687;50.800;6.772;2024-01-07T07:17:05;99912.16;;;-144.06;64.04
11017;BME280;54687;50.800;6.772;2024-01-07T07:19:32;99933.38;;;-144.06;63.99
11017;BME280;54687;50.800;6.772;2024-01-07T07:21:58;99835.84;;;-144.06;64.13
11017;BME280;54687;50.800;6.772;2024-01-07T07:24:25;99963.03;;;-144.06;63.20
11017;BME280;54687;50.800;6.772;2024-01-07T07:26:51;99918.53;;;-144.06;63.76
11017;BME280;54687;50.800;6.772;2024-01-07T07:29:18;99922.75;;;-144.06;63.93
11017;BME280;54687;50.800;6.772;2024-01-07T07:31:44;99903.69;;;-144.06;63.77
11017;BME280;54687;50.800;6.772;2024-01-07T07:34:12;99971.53;;;-144.06;63.70
11017;BME280;54687;50.800;6.772;2024-01-07T07:36:39;99956.69;;;-144.06;63.76
11017;BME280;54687;50.800;6.772;2024-01-07T07:39:07;99886.72;;;-144.06;63.55
11017;BME280;54687;50.800;6.772;2024-01-07T07:41:34;99933.38;;;-144.06;63.71
11017;BME280;54687;50.800;6.772;2024-01-07T07:44:00;99954.56;;;-144.06;63.22
11017;BME280;54687;50.800;6.772;2024-01-07T07:46:27;99958.81;;;-144.06;63.69
11017;BME280;54687;50.800;6.772;2024-01-07T07:48:54;99865.53;;;-144.06;64.05
11017;BME280;54687;50.800;6.772;2024-01-07T07:51:21;99971.53;;;-144.06;63.91
11017;BME280;54687;50.800;6.772;2024-01-07T07:53:48;99933.38;;;-144.06;64.41
11017;BME280;54687;50.800;6.772;2024-01-07T07:56:15;99952.44;;;-144.06;64.17
11017;BME280;54687;50.800;6.772;2024-01-07T07:58:41;99958.81;;;-144.06;64.19
11017;BME280;54687;50.800;6.772;2024-01-07T08:01:08;99946.09;;;-144.06;64.51
11017;BME280;54687;50.800;6.772;2024-01-07T08:03:34;99929.13;;;-144.06;64.21
11017;BME280;54687;50.800;6.772;2024-01-07T08:06:02;99967.28;;;-144.06;63.89
11017;BME280;54687;50.800;6.772;2024-01-07T08:08:30;99916.41;;;-144.06;64.16
11017;BME280;54687;50.800;6.772;2024-01-07T08:10:56;99950.31;;;-144.06;64.04
11017;BME280;54687;50.800;6.772;2024-01-07T08:13:23;99937.59;;;-144.06;63.76
11017;BME280;54687;50.800;6.772;2024-01-07T08:15:49;99912.16;;;-144.06;63.96
11017;BME280;54687;50.800;6.772;2024-01-07T08:18:16;99933.38;;;-144.06;63.91
11017;BME280;54687;50.800;6.772;2024-01-07T08:20:43;99933.38;;;-144.06;63.74
11017;BME280;54687;50.800;6.772;2024-01-07T08:23:09;99920.66;;;-144.06;63.64
11017;BME280;54687;50.800;6.772;2024-01-07T08:25:38;99963.03;;;-144.06;63.42
11017;BME280;54687;50.800;6.772;2024-01-07T08:28:04;99931.25;;;-144.06;63.31
11017;BME280;54687;50.800;6.772;2024-01-07T08:30:31;99973.66;;;-144.06;63.73
11017;BME280;54687;50.800;6.772;2024-01-07T08:32:58;99954.56;;;-144.06;63.44
11017;BME280;54687;50.800;6.772;2024-01-07T08:35:24;99967.28;;;-144.06;63.48
11017;BME280;54687;50.800;6.772;2024-01-07T08:37:51;99946.09;;;-144.06;63.53
11017;BME280;54687;50.800;6.772;2024-01-07T08:40:17;99937.59;;;-144.06;63.44
11017;BME280;54687;50.800;6.772;2024-01-07T08:42:45;99946.09;;;-144.06;63.54
11017;BME280;54687;50.800;6.772;2024-01-07T08:45:12;99929.13;;;-144.06;63.61
11017;BME280;54687;50.800;6.772;2024-01-07T08:47:39;99888.84;;;-144.06;63.34
11017;BME280;54687;50.800;6.772;2024-01-07T08:50:06;99937.59;;;-144.06;63.42
11017;BME280;54687;50.800;6.772;2024-01-07T08:52:33;99950.31;;;-144.06;63.67
11017;BME280;54687;50.800;6.772;2024-01-07T08:55:00;99687.44;;;-144.06;63.59
11017;BME280;54687;50.800;6.772;2024-01-07T08:57:27;99958.81;;;-144.06;63.52
11017;BME280;54687;50.800;6.772;2024-01-07T08:59:55;99937.59;;;-144.06;63.71
11017;BME280;54687;50.800;6.772;2024-01-07T09:02:22;99920.66;;;-144.06;63.20
11017;BME280;54687;50.800;6.772;2024-01-07T09:04:48;99922.75;;;-144.06;63.53
11017;BME280;54687;50.800;6.772;2024-01-07T09:07:15;99941.84;;;-144.06;63.65
11017;BME280;54687;50.800;6.772;2024-01-07T09:09:42;99946.09;;;-144.06;63.56
11017;BME280;54687;50.800;6.772;2024-01-07T09:12:08;99958.81;;;-144.06;63.76
11017;BME280;54687;50.800;6.772;2024-01-07T09:14:37;99958.81;;;-144.06;63.46
11017;BME280;54687;50.800;6.772;2024-01-07T09:17:05;99920.66;;;-144.06;63.27
11017;BME280;54687;50.800;6.772;2024-01-07T09:19:31;99907.91;;;-144.06;63.47
11017;BME280;54687;50.800;6.772;2024-01-07T09:21:58;99933.38;;;-144.06;63.61
11017;BME280;54687;50.800;6.772;2024-01-07T09:24:24;99977.88;;;-144.06;63.35
11017;BME280;54687;50.800;6.772;2024-01-07T09:26:51;99941.84;;;-144.06;63.64
11017;BME280;54687;50.800;6.772;2024-01-07T09:29:18;99924.88;;;-144.06;64.01
11017;BME280;54687;50.800;6.772;2024-01-07T09:31:45;99931.25;;;-144.06;63.33
11017;BME280;54687;50.800;6.772;2024-01-07T09:34:13;99996.97;;;-144.06;63.39
11017;BME280;54687;50.800;6.772;2024-01-07T09:36:40;99912.16;;;-144.06;63.66
11017;BME280;54687;50.800;6.772;2024-01-07T09:39:07;99935.47;;;-144.06;63.63
11017;BME280;54687;50.800;6.772;2024-01-07T09:41:34;99948.22;;;-144.06;63.69
11017;BME280;54687;50.800;6.772;2024-01-07T09:44:02;99960.94;;;-144.06;63.41
11017;BME280;54687;50.800;6.772;2024-01-07T09:46:31;99939.72;;;-144.06;63.70
11017;BME280;54687;50.800;6.772;2024-01-07T09:48:58;99950.31;;;-144.06;63.57
11017;BME280;54687;50.800;6.772;2024-01-07T09:51:27;99937.59;;;-144.06;63.27
11017;BME280;54687;50.800;6.772;2024-01-07T09:53:58;99950.31;;;-144.06;63.27
11017;BME280;54687;50.800;6.772;2024-01-07T09:56:35;99890.97;;;-144.06;63.39
11017;BME280;54687;50.800;6.772;2024-01-07T09:59:02;99939.72;;;-144.06;63.64
11017;BME280;54687;50.800;6.772;2024-01-07T10:01:29;99922.75;;;-144.06;63.45
11017;BME280;54687;50.800;6.772;2024-01-07T10:03:57;99920.66;;;-144.06;63.20
11017;BME280;54687;50.800;6.772;2024-01-07T10:06:23;99848.56;;;-144.06;62.92
11017;BME280;54687;50.800;6.772;2024-01-07T10:08:51;99933.38;;;-144.06;63.25
11017;BME280;54687;50.800;6.772;2024-01-07T10:11:18;99920.66;;;-144.06;62.69
11017;BME280;54687;50.800;6.772;2024-01-07T10:13:45;99939.72;;;-144.06;63.06
11017;BME280;54687;50.800;6.772;2024-01-07T10:16:13;99920.66;;;-144.06;62.79
11017;BME280;54687;50.800;6.772;2024-01-07T10:18:39;99946.09;;;-144.06;62.69
11017;BME280;54687;50.800;6.772;2024-01-07T10:21:06;99952.44;;;-144.06;63.04
11017;BME280;54687;50.800;6.772;2024-01-07T10:23:33;99943.97;;;-144.06;62.38
11017;BME280;54687;50.800;6.772;2024-01-07T10:26:01;99933.38;;;-144.06;62.71
11017;BME280;54687;50.800;6.772;2024-01-07T10:28:28;99963.03;;;-144.06;62.31
11017;BME280;54687;50.800;6.772;2024-01-07T10:30:55;99929.13;;;-144.06;61.99
11017;BME280;54687;50.800;6.772;2024-01-07T10:33:21;99912.16;;;-144.06;62.76
11017;BME280;54687;50.800;6.772;2024-01-07T10:35:52;99916.41;;;-144.06;62.53
11017;BME280;54687;50.800;6.772;2024-01-07T10:38:22;99903.69;;;-144.06;62.51
11017;BME280;54687;50.800;6.772;2024-01-07T10:40:50;99939.72;;;-144.06;61.81
11017;BME280;54687;50.800;6.772;2024-01-07T10:43:19;99963.03;;;-144.06;61.78
11017;BME280;54687;50.800;6.772;2024-01-07T10:45:47;99935.47;;;-144.06;61.08
11017;BME280;54687;50.800;6.772;2024-01-07T10:48:17;100399.81;;;-144.06;61.28
11017;BME280;54687;50.800;6.772;2024-01-07T10:50:45;99920.66;;;-144.06;61.78
11017;BME280;54687;50.800;6.772;2024-01-07T10:53:15;99954.56;;;-144.06;62.02
11017;BME280;54687;50.800;6.772;2024-01-07T10:55:46;99903.69;;;-144.06;61.92
11017;BME280;54687;50.800;6.772;2024-01-07T10:58:14;99897.31;;;-144.06;61.97
11017;BME280;54687;50.800;6.772;2024-01-07T11:00:43;99943.97;;;-144.06;61.42
11017;BME280;54687;50.800;6.772;2024-01-07T11:03:13;99937.59;;;-144.06;61.83
11017;BME280;54687;50.800;6.772;2024-01-07T11:05:49;99918.53;;;-144.06;61.17
11017;BME280;54687;50.800;6.772;2024-01-07T11:08:21;99920.66;;;-144.06;61.36
11017;BME280;54687;50.800;6.772;2024-01-07T11:10:55;99941.84;;;-144.06;61.39
11017;BME280;54687;50.800;6.772;2024-01-07T11:13:34;99967.28;;;-144.06;61.24
11017;BME280;54687;50.800;6.772;2024-01-07T11:16:03;99958.81;;;-144.06;61.53
11017;BME280;54687;50.800;6.772;2024-01-07T11:18:30;99988.47;;;-144.06;61.74
11017;BME280;54687;50.800;6.772;2024-01-07T11:21:00;99929.13;;;-144.06;61.44
11017;BME280;54687;50.800;6.772;2024-01-07T11:23:29;99980.00;;;-144.06;61.54
11017;BME280;54687;50.800;6.772;2024-01-07T11:25:57;99844.31;;;-144.06;61.83
11017;BME280;54687;50.800;6.772;2024-01-07T11:28:43;99895.19;;;-144.06;61.86
11017;BME280;54687;50.800;6.772;2024-01-07T11:31:11;99992.72;;;-144.06;61.40
11017;BME280;54687;50.800;6.772;2024-01-07T11:33:38;99869.75;;;-144.06;61.80
11017;BME280;54687;50.800;6.772;2024-01-07T11:36:05;99865.53;;;-144.06;61.38
11017;BME280;54687;50.800;6.772;2024-01-07T11:38:34;99929.13;;;-144.06;61.75
11017;BME280;54687;50.800;6.772;2024-01-07T11:41:00;99967.28;;;-144.06;61.41
11017;BME280;54687;50.800;6.772;2024-01-07T11:43:29;99950.31;;;-144.06;61.69
11017;BME280;54687;50.800;6.772;2024-01-07T11:45:55;99931.25;;;-144.06;61.25
11017;BME280;54687;50.800;6.772;2024-01-07T11:48:24;99948.22;;;-144.06;61.12
11017;BME280;54687;50.800;6.772;2024-01-07T11:50:51;99933.38;;;-144.06;61.46
11017;BME280;54687;50.800;6.772;2024-01-07T11:53:17;99946.09;;;-144.06;60.95
11017;BME280;54687;50.800;6.772;2024-01-07T11:55:44;99929.13;;;-144.06;61.16
11017;BME280;54687;50.800;6.772;2024-01-07T11:58:11;99907.91;;;-144.06;61.10
11017;BME280;54687;50.800;6.772;2024-01-07T12:00:38;99907.91;;;-144.06;60.51
11017;BME280;54687;50.800;6.772;2024-01-07T12:03:04;99963.03;;;-144.06;60.52
11017;BME280;54687;50.800;6.772;2024-01-07T12:05:32;99963.03;;;-144.06;60.55
11017;BME280;54687;50.800;6.772;2024-01-07T12:08:00;99937.59;;;-144.06;60.58
11017;BME280;54687;50.800;6.772;2024-01-07T12:10:28;99950.31;;;-144.06;60.38
11017;BME280;54687;50.800;6.772;2024-01-07T12:12:56;99916.41;;;-144.06;60.95
11017;BME280;54687;50.800;6.772;2024-01-07T12:15:23;99952.44;;;-144.06;60.81
11017;BME280;54687;50.800;6.772;2024-01-07T12:17:57;99956.69;;;-144.06;60.48
11017;BME280;54687;50.800;6.772;2024-01-07T12:20:24;99950.31;;;-144.06;60.67
11017;BME280;54687;50.800;6.772;2024-01-07T12:22:55;99999.09;;;-144.06;60.14
11017;BME280;54687;50.800;6.772;2024-01-07T12:25:22;99984.25;;;-144.06;59.94
11017;BME280;54687;50.800;6.772;2024-01-07T12:27:50;100582.16;;;-144.06;60.03
11017;BME280;54687;50.800;6.772;2024-01-07T12:30:24;99973.66;;;-144.06;60.14
11017;BME280;54687;50.800;6.772;2024-01-07T12:32:51;99975.75;;;-144.06;60.45
11017;BME280;54687;50.800;6.772;2024-01-07T12:35:18;99935.47;;;-144.06;60.29
11017;BME280;54687;50.800;6.772;2024-01-07T12:37:45;99935.47;;;-144.06;60.16
11017;BME280;54687;50.800;6.772;2024-01-07T12:40:13;99984.25;;;-144.06;60.47